Tyler Pounds Regional Airport
KTYR : now visible

Airfield :











YOU CAN JOIN US ON...

 
LOGIN :

Register | Disclaimer

   EN    FR    IT 

 









Legend :    VFR   Marginal VFR   IFR   Intensive IFR   Very Intensive IFR
Visi :
Ceiling :
>= 8 km
>= 3000ft
5 to 8 km
1000 to 3000 ft
1500m to 5 km
500 to 1000 ft
800 to 1500m
200 to 500 ft
< 800m
< 200 ft
Symbols :   Thunderstorms  Fog  Heavy snow  Heavy precipitations  Wind > 20 kt






- Airport Elevation : 544 ft
- IATA code : TYR


KTYR - Tyler Pounds Regional

CURRENT METAR :
  • 280853Z AUTO 20004KT 10SM CLR 04/M02 A3024 RMK AO2 SLP240 T00391022 56007

EXPIRED METARs :
  • 280753Z AUTO 20008KT 10SM CLR 06/M03 A3024 RMK AO2 SLP240 T00611028
  • 280653Z AUTO 20007KT 10SM CLR 06/M02 A3025 RMK AO2 SLP244 T00561022

TAF KTYR
Valid from the 28 at 06:00 until the 29 at 06:00 UTC


280520Z 2806/2906 22005KT P6SM SKC
FM281500 32008KT P6SM SKC
FM282300 VRB04KT P6SM SKC



MET'MAP, your aeronautical weather chart ! - Copyright ORBIFLY December 2007 - Disclaimer

ORBIFLY MET'MAP TEAM :

Programming & Development : Alexandra Zaïnal
Concept & original design : Baudouin d'Aumeries
Assistance for programming : Marc-Olivier Méhu
Technical & hardware support : Manuel Goepfert

Contact : metmap@orbifly.com




SOURCES & CREDITS :

   NOAA       Earth
Advisory